sensor_id;sensor_type;location;lat;lon;timestamp;P1;durP1;ratioP1;P2;durP2;ratioP2
13197;SDS011;6664;52.514;13.440;2022-09-02T00:01:22;1.10;;;1.00;;
13197;SDS011;6664;52.514;13.440;2022-09-02T00:03:53;1.30;;;1.20;;
13197;SDS011;6664;52.514;13.440;2022-09-02T00:06:22;1.80;;;1.03;;
13197;SDS011;6664;52.514;13.440;2022-09-02T00:08:50;1.40;;;1.30;;
13197;SDS011;6664;52.514;13.440;2022-09-02T00:11:20;1.20;;;1.00;;
13197;SDS011;6664;52.514;13.440;2022-09-02T00:13:50;1.97;;;1.87;;
13197;SDS011;6664;52.514;13.440;2022-09-02T00:16:22;1.30;;;1.20;;
13197;SDS011;6664;52.514;13.440;2022-09-02T00:18:51;1.20;;;1.10;;
13197;SDS011;6664;52.514;13.440;2022-09-02T00:21:22;1.57;;;0.90;;
13197;SDS011;6664;52.514;13.440;2022-09-02T00:23:50;1.50;;;1.20;;
13197;SDS011;6664;52.514;13.440;2022-09-02T00:26:22;0.87;;;0.87;;
13197;SDS011;6664;52.514;13.440;2022-09-02T00:28:50;0.90;;;0.90;;
13197;SDS011;6664;52.514;13.440;2022-09-02T00:31:21;2.70;;;0.80;;
13197;SDS011;6664;52.514;13.440;2022-09-02T00:33:50;0.90;;;0.90;;
13197;SDS011;6664;52.514;13.440;2022-09-02T00:36:17;0.80;;;0.80;;
13197;SDS011;6664;52.514;13.440;2022-09-02T00:38:44;0.90;;;0.90;;
13197;SDS011;6664;52.514;13.440;2022-09-02T00:41:17;0.73;;;0.73;;
13197;SDS011;6664;52.514;13.440;2022-09-02T00:43:50;0.80;;;0.80;;
13197;SDS011;6664;52.514;13.440;2022-09-02T00:46:22;2.10;;;0.90;;
13197;SDS011;6664;52.514;13.440;2022-09-02T00:49:02;1.30;;;0.83;;
13197;SDS011;6664;52.514;13.440;2022-09-02T00:54:36;1.10;;;0.97;;
13197;SDS011;6664;52.514;13.440;2022-09-02T00:57:13;1.83;;;1.13;;
13197;SDS011;6664;52.514;13.440;2022-09-02T00:59:57;1.13;;;1.00;;
13197;SDS011;6664;52.514;13.440;2022-09-02T01:02:51;0.90;;;0.90;;
13197;SDS011;6664;52.514;13.440;2022-09-02T01:05:20;0.80;;;0.80;;
13197;SDS011;6664;52.514;13.440;2022-09-02T01:07:52;0.67;;;0.67;;
13197;SDS011;6664;52.514;13.440;2022-09-02T01:10:21;1.70;;;0.93;;
13197;SDS011;6664;52.514;13.440;2022-09-02T01:12:54;0.90;;;0.90;;
13197;SDS011;6664;52.514;13.440;2022-09-02T01:15:22;1.20;;;1.00;;
13197;SDS011;6664;52.514;13.440;2022-09-02T01:17:50;1.57;;;1.10;;
13197;SDS011;6664;52.514;13.440;2022-09-02T01:20:22;1.23;;;1.13;;
13197;SDS011;6664;52.514;13.440;2022-09-02T01:22:53;0.87;;;0.80;;
13197;SDS011;6664;52.514;13.440;2022-09-02T01:25:27;1.10;;;0.90;;
13197;SDS011;6664;52.514;13.440;2022-09-02T01:27:58;1.87;;;0.90;;
13197;SDS011;6664;52.514;13.440;2022-09-02T01:30:30;1.87;;;0.90;;
13197;SDS011;6664;52.514;13.440;2022-09-02T01:33:00;1.03;;;0.90;;
13197;SDS011;6664;52.514;13.440;2022-09-02T01:35:29;4.10;;;0.97;;
13197;SDS011;6664;52.514;13.440;2022-09-02T01:37:57;2.73;;;1.50;;
13197;SDS011;6664;52.514;13.440;2022-09-02T01:40:25;1.47;;;1.00;;
13197;SDS011;6664;52.514;13.440;2022-09-02T01:42:57;1.30;;;1.07;;
13197;SDS011;6664;52.514;13.440;2022-09-02T01:45:27;3.27;;;1.30;;
13197;SDS011;6664;52.514;13.440;2022-09-02T01:47:55;0.63;;;0.63;;
13197;SDS011;6664;52.514;13.440;2022-09-02T01:50:24;0.80;;;0.80;;
13197;SDS011;6664;52.514;13.440;2022-09-02T01:52:53;1.07;;;1.07;;
13197;SDS011;6664;52.514;13.440;2022-09-02T01:55:22;0.87;;;0.87;;
13197;SDS011;6664;52.514;13.440;2022-09-02T01:57:54;0.90;;;0.90;;
13197;SDS011;6664;52.514;13.440;2022-09-02T02:00:21;1.07;;;0.83;;
13197;SDS011;6664;52.514;13.440;2022-09-02T02:02:50;0.80;;;0.80;;
13197;SDS011;6664;52.514;13.440;2022-09-02T02:05:18;1.07;;;0.90;;
13197;SDS011;6664;52.514;13.440;2022-09-02T02:07:47;1.30;;;0.70;;
13197;SDS011;6664;52.514;13.440;2022-09-02T02:10:15;1.30;;;1.10;;
13197;SDS011;6664;52.514;13.440;2022-09-02T02:12:44;1.23;;;1.00;;
13197;SDS011;6664;52.514;13.440;2022-09-02T02:15:13;1.90;;;1.00;;
13197;SDS011;6664;52.514;13.440;2022-09-02T02:17:45;5.93;;;0.90;;
13197;SDS011;6664;52.514;13.440;2022-09-02T02:20:12;0.80;;;0.80;;
13197;SDS011;6664;52.514;13.440;2022-09-02T02:22:43;1.83;;;1.13;;
13197;SDS011;6664;52.514;13.440;2022-09-02T02:25:12;1.93;;;1.00;;
13197;SDS011;6664;52.514;13.440;2022-09-02T02:27:41;1.30;;;1.20;;
13197;SDS011;6664;52.514;13.440;2022-09-02T02:30:09;1.00;;;0.90;;
13197;SDS011;6664;52.514;13.440;2022-09-02T02:32:43;0.90;;;0.73;;
13197;SDS011;6664;52.514;13.440;2022-09-02T02:35:15;0.90;;;0.90;;
13197;SDS011;6664;52.514;13.440;2022-09-02T02:37:44;1.60;;;0.97;;
13197;SDS011;6664;52.514;13.440;2022-09-02T02:40:15;0.80;;;0.80;;
13197;SDS011;6664;52.514;13.440;2022-09-02T02:42:47;1.13;;;1.10;;
13197;SDS011;6664;52.514;13.440;2022-09-02T02:45:15;1.00;;;0.90;;
13197;SDS011;6664;52.514;13.440;2022-09-02T02:47:42;1.10;;;1.00;;
13197;SDS011;6664;52.514;13.440;2022-09-02T02:50:15;2.33;;;1.13;;
13197;SDS011;6664;52.514;13.440;2022-09-02T02:52:45;2.13;;;1.20;;
13197;SDS011;6664;52.514;13.440;2022-09-02T02:55:14;1.00;;;1.00;;
13197;SDS011;6664;52.514;13.440;2022-09-02T02:57:42;0.70;;;0.70;;
13197;SDS011;6664;52.514;13.440;2022-09-02T03:02:39;1.47;;;1.17;;
13197;SDS011;6664;52.514;13.440;2022-09-02T03:05:07;0.93;;;0.93;;
13197;SDS011;6664;52.514;13.440;2022-09-02T03:07:35;1.77;;;1.10;;
13197;SDS011;6664;52.514;13.440;2022-09-02T03:10:03;2.40;;;1.10;;
13197;SDS011;6664;52.514;13.440;2022-09-02T03:12:34;1.10;;;1.10;;
13197;SDS011;6664;52.514;13.440;2022-09-02T03:15:01;1.10;;;1.00;;
13197;SDS011;6664;52.514;13.440;2022-09-02T03:17:31;0.90;;;0.90;;
13197;SDS011;6664;52.514;13.440;2022-09-02T03:20:01;1.40;;;1.30;;
13197;SDS011;6664;52.514;13.440;2022-09-02T03:22:28;1.27;;;1.10;;
13197;SDS011;6664;52.514;13.440;2022-09-02T03:24:55;1.30;;;1.20;;
13197;SDS011;6664;52.514;13.440;2022-09-02T03:27:25;1.07;;;1.00;;
13197;SDS011;6664;52.514;13.440;2022-09-02T03:29:54;1.07;;;1.07;;
13197;SDS011;6664;52.514;13.440;2022-09-02T03:32:24;2.30;;;0.93;;
13197;SDS011;6664;52.514;13.440;2022-09-02T03:34:55;1.33;;;1.10;;
13197;SDS011;6664;52.514;13.440;2022-09-02T03:37:25;8.60;;;1.20;;
13197;SDS011;6664;52.514;13.440;2022-09-02T03:39:55;1.63;;;1.00;;
13197;SDS011;6664;52.514;13.440;2022-09-02T03:42:21;1.40;;;1.20;;
13197;SDS011;6664;52.514;13.440;2022-09-02T03:44:51;1.10;;;1.00;;
13197;SDS011;6664;52.514;13.440;2022-09-02T03:47:20;1.40;;;1.30;;
13197;SDS011;6664;52.514;13.440;2022-09-02T03:49:49;2.10;;;1.03;;
13197;SDS011;6664;52.514;13.440;2022-09-02T03:52:17;7.40;;;1.30;;
13197;SDS011;6664;52.514;13.440;2022-09-02T03:54:43;1.03;;;1.03;;
13197;SDS011;6664;52.514;13.440;2022-09-02T03:57:13;1.40;;;1.30;;
13197;SDS011;6664;52.514;13.440;2022-09-02T03:59:40;1.40;;;1.30;;
13197;SDS011;6664;52.514;13.440;2022-09-02T04:02:07;5.23;;;1.30;;
13197;SDS011;6664;52.514;13.440;2022-09-02T04:04:34;1.50;;;1.40;;
13197;SDS011;6664;52.514;13.440;2022-09-02T04:07:02;1.90;;;1.00;;
13197;SDS011;6664;52.514;13.440;2022-09-02T04:09:30;1.47;;;1.33;;
13197;SDS011;6664;52.514;13.440;2022-09-02T04:11:57;2.50;;;1.13;;
13197;SDS011;6664;52.514;13.440;2022-09-02T04:14:27;1.57;;;1.13;;
13197;SDS011;6664;52.514;13.440;2022-09-02T04:16:56;1.20;;;1.10;;
13197;SDS011;6664;52.514;13.440;2022-09-02T04:19:23;3.63;;;1.30;;
13197;SDS011;6664;52.514;13.440;2022-09-02T04:21:50;1.17;;;1.07;;
13197;SDS011;6664;52.514;13.440;2022-09-02T04:24:17;1.40;;;1.30;;
13197;SDS011;6664;52.514;13.440;2022-09-02T04:26:44;1.90;;;1.60;;
13197;SDS011;6664;52.514;13.440;2022-09-02T04:29:16;1.50;;;1.40;;
13197;SDS011;6664;52.514;13.440;2022-09-02T04:31:45;1.47;;;1.30;;
13197;SDS011;6664;52.514;13.440;2022-09-02T04:34:15;2.87;;;1.50;;
13197;SDS011;6664;52.514;13.440;2022-09-02T04:36:44;2.07;;;1.30;;
13197;SDS011;6664;52.514;13.440;2022-09-02T04:39:11;1.67;;;1.43;;
13197;SDS011;6664;52.514;13.440;2022-09-02T04:41:39;1.37;;;1.27;;
13197;SDS011;6664;52.514;13.440;2022-09-02T04:44:08;1.63;;;1.30;;
13197;SDS011;6664;52.514;13.440;2022-09-02T04:46:35;1.80;;;1.20;;
13197;SDS011;6664;52.514;13.440;2022-09-02T04:49:04;2.03;;;1.20;;
13197;SDS011;6664;52.514;13.440;2022-09-02T04:51:31;5.20;;;1.40;;
13197;SDS011;6664;52.514;13.440;2022-09-02T04:53:59;1.33;;;1.23;;
13197;SDS011;6664;52.514;13.440;2022-09-02T04:56:27;1.17;;;1.07;;
13197;SDS011;6664;52.514;13.440;2022-09-02T04:58:56;1.60;;;1.33;;
13197;SDS011;6664;52.514;13.440;2022-09-02T05:01:24;1.43;;;1.33;;
13197;SDS011;6664;52.514;13.440;2022-09-02T05:03:55;1.80;;;1.37;;
13197;SDS011;6664;52.514;13.440;2022-09-02T05:06:23;6.33;;;1.43;;
13197;SDS011;6664;52.514;13.440;2022-09-02T05:08:53;4.60;;;1.60;;
13197;SDS011;6664;52.514;13.440;2022-09-02T05:11:25;3.43;;;1.37;;
13197;SDS011;6664;52.514;13.440;2022-09-02T05:13:59;1.33;;;1.23;;
13197;SDS011;6664;52.514;13.440;2022-09-02T05:16:29;4.23;;;1.30;;
13197;SDS011;6664;52.514;13.440;2022-09-02T05:18:58;2.60;;;1.47;;
13197;SDS011;6664;52.514;13.440;2022-09-02T05:21:25;4.50;;;1.20;;
13197;SDS011;6664;52.514;13.440;2022-09-02T05:23:52;2.03;;;1.93;;
13197;SDS011;6664;52.514;13.440;2022-09-02T05:26:20;1.43;;;1.27;;
13197;SDS011;6664;52.514;13.440;2022-09-02T05:28:48;1.80;;;1.37;;
13197;SDS011;6664;52.514;13.440;2022-09-02T05:31:16;1.40;;;1.30;;
13197;SDS011;6664;52.514;13.440;2022-09-02T05:33:44;1.60;;;1.50;;
13197;SDS011;6664;52.514;13.440;2022-09-02T05:36:16;1.53;;;1.43;;
13197;SDS011;6664;52.514;13.440;2022-09-02T05:38:51;4.47;;;1.70;;
13197;SDS011;6664;52.514;13.440;2022-09-02T05:41:22;3.87;;;1.60;;
13197;SDS011;6664;52.514;13.440;2022-09-02T05:43:52;1.50;;;1.40;;
13197;SDS011;6664;52.514;13.440;2022-09-02T05:46:24;2.63;;;1.70;;
13197;SDS011;6664;52.514;13.440;2022-09-02T05:48:52;1.27;;;1.17;;
13197;SDS011;6664;52.514;13.440;2022-09-02T05:51:47;6.20;;;1.43;;
13197;SDS011;6664;52.514;13.440;2022-09-02T05:54:31;2.40;;;1.37;;
13197;SDS011;6664;52.514;13.440;2022-09-02T05:57:01;3.83;;;2.10;;
13197;SDS011;6664;52.514;13.440;2022-09-02T05:59:30;1.60;;;1.20;;
13197;SDS011;6664;52.514;13.440;2022-09-02T06:02:02;2.03;;;1.20;;
13197;SDS011;6664;52.514;13.440;2022-09-02T06:04:35;1.47;;;1.00;;
13197;SDS011;6664;52.514;13.440;2022-09-02T06:07:03;2.17;;;1.70;;
13197;SDS011;6664;52.514;13.440;2022-09-02T06:09:31;1.53;;;1.43;;
13197;SDS011;6664;52.514;13.440;2022-09-02T06:11:58;1.40;;;1.30;;
13197;SDS011;6664;52.514;13.440;2022-09-02T06:14:32;1.20;;;1.10;;
13197;SDS011;6664;52.514;13.440;2022-09-02T06:17:03;1.70;;;1.40;;
13197;SDS011;6664;52.514;13.440;2022-09-02T06:19:31;3.23;;;1.30;;
13197;SDS011;6664;52.514;13.440;2022-09-02T06:21:59;5.70;;;1.73;;
13197;SDS011;6664;52.514;13.440;2022-09-02T06:24:28;2.00;;;1.20;;
13197;SDS011;6664;52.514;13.440;2022-09-02T06:26:59;1.70;;;1.60;;
13197;SDS011;6664;52.514;13.440;2022-09-02T06:29:32;2.60;;;1.73;;
13197;SDS011;6664;52.514;13.440;2022-09-02T06:32:02;1.77;;;1.67;;
13197;SDS011;6664;52.514;13.440;2022-09-02T06:34:29;1.73;;;1.30;;
13197;SDS011;6664;52.514;13.440;2022-09-02T06:36:56;4.03;;;1.80;;
13197;SDS011;6664;52.514;13.440;2022-09-02T06:39:25;5.67;;;2.00;;
13197;SDS011;6664;52.514;13.440;2022-09-02T06:41:53;1.57;;;1.47;;
13197;SDS011;6664;52.514;13.440;2022-09-02T06:44:21;2.53;;;1.33;;
13197;SDS011;6664;52.514;13.440;2022-09-02T06:46:57;3.53;;;1.50;;
13197;SDS011;6664;52.514;13.440;2022-09-02T06:49:27;1.53;;;1.43;;
13197;SDS011;6664;52.514;13.440;2022-09-02T06:51:54;1.60;;;1.50;;
13197;SDS011;6664;52.514;13.440;2022-09-02T06:54:22;2.13;;;1.50;;
13197;SDS011;6664;52.514;13.440;2022-09-02T06:56:50;2.27;;;1.33;;
13197;SDS011;6664;52.514;13.440;2022-09-02T06:59:18;3.87;;;1.50;;
13197;SDS011;6664;52.514;13.440;2022-09-02T07:01:46;3.30;;;1.30;;
13197;SDS011;6664;52.514;13.440;2022-09-02T07:04:16;1.60;;;1.50;;
13197;SDS011;6664;52.514;13.440;2022-09-02T07:07:02;5.30;;;1.80;;
13197;SDS011;6664;52.514;13.440;2022-09-02T07:09:33;1.60;;;1.33;;
13197;SDS011;6664;52.514;13.440;2022-09-02T07:12:03;1.43;;;1.20;;
13197;SDS011;6664;52.514;13.440;2022-09-02T07:14:34;5.03;;;1.77;;
13197;SDS011;6664;52.514;13.440;2022-09-02T07:17:03;2.27;;;1.43;;
13197;SDS011;6664;52.514;13.440;2022-09-02T07:19:30;1.37;;;1.27;;
13197;SDS011;6664;52.514;13.440;2022-09-02T07:21:57;2.30;;;1.23;;
13197;SDS011;6664;52.514;13.440;2022-09-02T07:24:26;3.77;;;2.00;;
13197;SDS011;6664;52.514;13.440;2022-09-02T07:26:53;1.90;;;1.70;;
13197;SDS011;6664;52.514;13.440;2022-09-02T07:29:23;1.30;;;1.20;;
13197;SDS011;6664;52.514;13.440;2022-09-02T07:31:58;1.60;;;1.50;;
13197;SDS011;6664;52.514;13.440;2022-09-02T07:34:25;3.03;;;1.70;;
13197;SDS011;6664;52.514;13.440;2022-09-02T07:36:52;1.63;;;1.20;;
13197;SDS011;6664;52.514;13.440;2022-09-02T07:39:22;1.87;;;1.30;;
13197;SDS011;6664;52.514;13.440;2022-09-02T07:41:49;2.90;;;1.50;;
13197;SDS011;6664;52.514;13.440;2022-09-02T07:44:18;2.37;;;1.00;;
13197;SDS011;6664;52.514;13.440;2022-09-02T07:46:46;7.53;;;1.50;;
13197;SDS011;6664;52.514;13.440;2022-09-02T07:49:14;1.33;;;1.23;;
13197;SDS011;6664;52.514;13.440;2022-09-02T07:51:46;1.17;;;1.07;;
13197;SDS011;6664;52.514;13.440;2022-09-02T07:54:17;4.20;;;1.03;;
13197;SDS011;6664;52.514;13.440;2022-09-02T07:56:48;2.07;;;1.20;;
13197;SDS011;6664;52.514;13.440;2022-09-02T07:59:20;8.40;;;1.00;;
13197;SDS011;6664;52.514;13.440;2022-09-02T08:01:47;2.93;;;1.40;;
13197;SDS011;6664;52.514;13.440;2022-09-02T08:04:15;3.20;;;1.37;;
13197;SDS011;6664;52.514;13.440;2022-09-02T08:06:43;3.40;;;1.20;;
13197;SDS011;6664;52.514;13.440;2022-09-02T08:09:10;1.00;;;1.00;;
13197;SDS011;6664;52.514;13.440;2022-09-02T08:11:38;1.23;;;1.23;;
13197;SDS011;6664;52.514;13.440;2022-09-02T08:14:08;1.53;;;1.17;;
13197;SDS011;6664;52.514;13.440;2022-09-02T08:16:38;3.87;;;1.17;;
13197;SDS011;6664;52.514;13.440;2022-09-02T08:19:07;1.10;;;1.00;;
13197;SDS011;6664;52.514;13.440;2022-09-02T08:21:34;1.07;;;1.00;;
13197;SDS011;6664;52.514;13.440;2022-09-02T08:24:03;0.80;;;0.80;;
13197;SDS011;6664;52.514;13.440;2022-09-02T08:26:30;0.93;;;0.93;;
13197;SDS011;6664;52.514;13.440;2022-09-02T08:29:02;0.70;;;0.70;;
13197;SDS011;6664;52.514;13.440;2022-09-02T08:31:32;1.10;;;1.00;;
13197;SDS011;6664;52.514;13.440;2022-09-02T08:34:01;1.87;;;1.20;;
13197;SDS011;6664;52.514;13.440;2022-09-02T08:36:30;3.17;;;1.30;;
13197;SDS011;6664;52.514;13.440;2022-09-02T08:38:59;4.43;;;1.13;;
13197;SDS011;6664;52.514;13.440;2022-09-02T08:44:38;1.20;;;1.07;;
13197;SDS011;6664;52.514;13.440;2022-09-02T08:47:08;4.63;;;1.00;;
13197;SDS011;6664;52.514;13.440;2022-09-02T08:49:45;1.10;;;1.00;;
13197;SDS011;6664;52.514;13.440;2022-09-02T08:52:26;1.67;;;1.10;;
13197;SDS011;6664;52.514;13.440;2022-09-02T08:55:17;0.90;;;0.90;;
13197;SDS011;6664;52.514;13.440;2022-09-02T08:57:47;1.60;;;1.27;;
13197;SDS011;6664;52.514;13.440;2022-09-02T09:00:14;1.77;;;1.20;;
13197;SDS011;6664;52.514;13.440;2022-09-02T09:02:45;1.23;;;0.90;;
13197;SDS011;6664;52.514;13.440;2022-09-02T09:16:27;1.63;;;0.80;;
13197;SDS011;6664;52.514;13.440;2022-09-02T09:21:52;0.90;;;0.90;;
13197;SDS011;6664;52.514;13.440;2022-09-02T09:24:25;1.97;;;1.20;;
13197;SDS011;6664;52.514;13.440;2022-09-02T09:27:28;0.97;;;0.80;;
13197;SDS011;6664;52.514;13.440;2022-09-02T09:29:56;0.80;;;0.80;;
13197;SDS011;6664;52.514;13.440;2022-09-02T09:32:28;1.10;;;1.00;;
13197;SDS011;6664;52.514;13.440;2022-09-02T09:42:54;4.20;;;0.90;;
13197;SDS011;6664;52.514;13.440;2022-09-02T09:45:42;0.77;;;0.77;;
13197;SDS011;6664;52.514;13.440;2022-09-02T09:48:23;0.60;;;0.60;;
13197;SDS011;6664;52.514;13.440;2022-09-02T09:55:56;1.43;;;0.90;;
13197;SDS011;6664;52.514;13.440;2022-09-02T10:01:09;5.60;;;0.80;;
13197;SDS011;6664;52.514;13.440;2022-09-02T10:07:09;1.00;;;0.80;;
13197;SDS011;6664;52.514;13.440;2022-09-02T10:09:39;2.83;;;0.93;;
13197;SDS011;6664;52.514;13.440;2022-09-02T10:12:07;2.20;;;1.00;;
13197;SDS011;6664;52.514;13.440;2022-09-02T10:20:30;1.20;;;0.80;;
13197;SDS011;6664;52.514;13.440;2022-09-02T10:22:58;0.90;;;0.90;;
13197;SDS011;6664;52.514;13.440;2022-09-02T10:25:43;1.47;;;1.03;;
13197;SDS011;6664;52.514;13.440;2022-09-02T10:34:06;1.03;;;0.90;;
13197;SDS011;6664;52.514;13.440;2022-09-02T10:36:53;0.80;;;0.80;;
13197;SDS011;6664;52.514;13.440;2022-09-02T10:39:38;1.10;;;1.00;;
13197;SDS011;6664;52.514;13.440;2022-09-02T10:56:44;1.80;;;1.10;;
13197;SDS011;6664;52.514;13.440;2022-09-02T11:11:19;0.80;;;0.80;;
13197;SDS011;6664;52.514;13.440;2022-09-02T11:16:51;1.00;;;0.90;;
13197;SDS011;6664;52.514;13.440;2022-09-02T11:27:08;2.20;;;0.90;;
13197;SDS011;6664;52.514;13.440;2022-09-02T11:30:11;5.10;;;1.13;;
13197;SDS011;6664;52.514;13.440;2022-09-02T11:35:13;0.70;;;0.70;;
13197;SDS011;6664;52.514;13.440;2022-09-02T11:37:49;1.00;;;0.87;;
13197;SDS011;6664;52.514;13.440;2022-09-02T11:54:28;3.80;;;0.90;;
13197;SDS011;6664;52.514;13.440;2022-09-02T11:57:04;0.70;;;0.70;;
13197;SDS011;6664;52.514;13.440;2022-09-02T12:05:43;2.50;;;0.80;;
13197;SDS011;6664;52.514;13.440;2022-09-02T12:08:00;0.90;;;0.90;;
13197;SDS011;6664;52.514;13.440;2022-09-02T12:13:09;0.83;;;0.80;;
13197;SDS011;6664;52.514;13.440;2022-09-02T12:21:19;1.03;;;0.73;;
13197;SDS011;6664;52.514;13.440;2022-09-02T12:26:22;0.80;;;0.80;;
13197;SDS011;6664;52.514;13.440;2022-09-02T12:28:51;1.47;;;0.80;;
13197;SDS011;6664;52.514;13.440;2022-09-02T12:31:36;2.30;;;0.80;;
13197;SDS011;6664;52.514;13.440;2022-09-02T12:36:50;7.33;;;1.13;;
13197;SDS011;6664;52.514;13.440;2022-09-02T12:53:20;1.27;;;0.90;;
13197;SDS011;6664;52.514;13.440;2022-09-02T12:58:54;1.40;;;0.97;;
13197;SDS011;6664;52.514;13.440;2022-09-02T13:04:07;1.03;;;0.93;;
13197;SDS011;6664;52.514;13.440;2022-09-02T13:09:40;0.83;;;0.70;;
13197;SDS011;6664;52.514;13.440;2022-09-02T13:12:33;0.90;;;0.90;;
13197;SDS011;6664;52.514;13.440;2022-09-02T13:33:11;0.80;;;0.80;;
13197;SDS011;6664;52.514;13.440;2022-09-02T13:35:39;3.08;;;0.60;;
13197;SDS011;6664;52.514;13.440;2022-09-02T13:38:10;1.30;;;0.60;;
13197;SDS011;6664;52.514;13.440;2022-09-02T13:40:38;0.70;;;0.70;;
13197;SDS011;6664;52.514;13.440;2022-09-02T13:45:41;0.65;;;0.65;;
13197;SDS011;6664;52.514;13.440;2022-09-02T13:48:18;0.80;;;0.80;;
13197;SDS011;6664;52.514;13.440;2022-09-02T13:50:48;0.95;;;0.75;;
13197;SDS011;6664;52.514;13.440;2022-09-02T13:53:25;0.80;;;0.80;;
13197;SDS011;6664;52.514;13.440;2022-09-02T13:56:21;0.70;;;0.70;;
13197;SDS011;6664;52.514;13.440;2022-09-02T13:58:51;1.33;;;1.00;;
13197;SDS011;6664;52.514;13.440;2022-09-02T14:01:32;2.70;;;1.20;;
13197;SDS011;6664;52.514;13.440;2022-09-02T14:04:05;0.77;;;0.77;;
13197;SDS011;6664;52.514;13.440;2022-09-02T14:06:37;0.90;;;0.90;;
13197;SDS011;6664;52.514;13.440;2022-09-02T14:09:10;1.43;;;0.70;;
13197;SDS011;6664;52.514;13.440;2022-09-02T14:11:47;0.70;;;0.70;;
13197;SDS011;6664;52.514;13.440;2022-09-02T14:14:22;0.93;;;0.80;;
13197;SDS011;6664;52.514;13.440;2022-09-02T14:16:50;0.60;;;0.60;;
13197;SDS011;6664;52.514;13.440;2022-09-02T14:21:54;0.55;;;0.55;;
13197;SDS011;6664;52.514;13.440;2022-09-02T14:24:26;0.50;;;0.50;;
13197;SDS011;6664;52.514;13.440;2022-09-02T14:26:55;0.60;;;0.60;;
13197;SDS011;6664;52.514;13.440;2022-09-02T14:29:24;2.83;;;0.70;;
13197;SDS011;6664;52.514;13.440;2022-09-02T14:32:09;1.05;;;0.70;;
13197;SDS011;6664;52.514;13.440;2022-09-02T14:35:10;3.05;;;1.65;;
13197;SDS011;6664;52.514;13.440;2022-09-02T14:37:46;0.63;;;0.63;;
13197;SDS011;6664;52.514;13.440;2022-09-02T14:40:29;0.60;;;0.60;;
13197;SDS011;6664;52.514;13.440;2022-09-02T14:42:58;1.88;;;0.60;;
13197;SDS011;6664;52.514;13.440;2022-09-02T14:47:55;0.70;;;0.70;;
13197;SDS011;6664;52.514;13.440;2022-09-02T14:50:28;1.88;;;0.70;;
13197;SDS011;6664;52.514;13.440;2022-09-02T14:52:59;0.60;;;0.60;;
13197;SDS011;6664;52.514;13.440;2022-09-02T14:58:20;1.57;;;0.90;;
13197;SDS011;6664;52.514;13.440;2022-09-02T15:00:52;0.80;;;0.80;;
13197;SDS011;6664;52.514;13.440;2022-09-02T15:03:21;3.33;;;0.70;;
13197;SDS011;6664;52.514;13.440;2022-09-02T15:05:49;1.47;;;1.03;;
13197;SDS011;6664;52.514;13.440;2022-09-02T15:08:17;0.80;;;0.80;;
13197;SDS011;6664;52.514;13.440;2022-09-02T15:10:47;1.17;;;1.00;;
13197;SDS011;6664;52.514;13.440;2022-09-02T15:13:49;0.90;;;0.80;;
13197;SDS011;6664;52.514;13.440;2022-09-02T15:16:11;4.60;;;0.87;;
13197;SDS011;6664;52.514;13.440;2022-09-02T15:18:38;0.80;;;0.80;;
13197;SDS011;6664;52.514;13.440;2022-09-02T15:21:07;1.57;;;0.70;;
13197;SDS011;6664;52.514;13.440;2022-09-02T15:23:35;3.30;;;1.00;;
13197;SDS011;6664;52.514;13.440;2022-09-02T15:26:06;0.90;;;0.90;;
13197;SDS011;6664;52.514;13.440;2022-09-02T15:28:33;3.33;;;1.00;;
13197;SDS011;6664;52.514;13.440;2022-09-02T15:31:01;1.00;;;0.80;;
13197;SDS011;6664;52.514;13.440;2022-09-02T15:33:28;0.90;;;0.73;;
13197;SDS011;6664;52.514;13.440;2022-09-02T15:36:03;0.70;;;0.70;;
13197;SDS011;6664;52.514;13.440;2022-09-02T15:38:34;0.70;;;0.70;;
13197;SDS011;6664;52.514;13.440;2022-09-02T15:41:12;0.70;;;0.70;;
13197;SDS011;6664;52.514;13.440;2022-09-02T15:43:47;3.00;;;0.90;;
13197;SDS011;6664;52.514;13.440;2022-09-02T15:46:24;0.77;;;0.77;;
13197;SDS011;6664;52.514;13.440;2022-09-02T15:48:53;1.33;;;0.97;;
13197;SDS011;6664;52.514;13.440;2022-09-02T15:51:27;1.60;;;0.97;;
13197;SDS011;6664;52.514;13.440;2022-09-02T15:53:59;0.70;;;0.70;;
13197;SDS011;6664;52.514;13.440;2022-09-02T15:56:32;0.80;;;0.80;;
13197;SDS011;6664;52.514;13.440;2022-09-02T15:59:04;0.90;;;0.70;;
13197;SDS011;6664;52.514;13.440;2022-09-02T16:01:37;2.20;;;0.80;;
13197;SDS011;6664;52.514;13.440;2022-09-02T16:04:06;0.90;;;0.80;;
13197;SDS011;6664;52.514;13.440;2022-09-02T16:06:39;2.70;;;0.97;;
13197;SDS011;6664;52.514;13.440;2022-09-02T16:09:09;2.03;;;1.03;;
13197;SDS011;6664;52.514;13.440;2022-09-02T16:11:41;0.73;;;0.73;;
13197;SDS011;6664;52.514;13.440;2022-09-02T16:14:09;1.77;;;0.90;;
13197;SDS011;6664;52.514;13.440;2022-09-02T16:16:37;1.00;;;0.90;;
13197;SDS011;6664;52.514;13.440;2022-09-02T16:19:05;0.83;;;0.83;;
13197;SDS011;6664;52.514;13.440;2022-09-02T16:21:33;2.30;;;1.10;;
13197;SDS011;6664;52.514;13.440;2022-09-02T16:24:06;2.60;;;0.90;;
13197;SDS011;6664;52.514;13.440;2022-09-02T16:26:35;4.33;;;0.90;;
13197;SDS011;6664;52.514;13.440;2022-09-02T16:29:05;1.10;;;1.00;;
13197;SDS011;6664;52.514;13.440;2022-09-02T16:31:34;0.70;;;0.70;;
13197;SDS011;6664;52.514;13.440;2022-09-02T16:34:06;1.17;;;0.70;;
13197;SDS011;6664;52.514;13.440;2022-09-02T16:36:39;1.63;;;0.90;;
13197;SDS011;6664;52.514;13.440;2022-09-02T16:39:07;0.80;;;0.80;;
13197;SDS011;6664;52.514;13.440;2022-09-02T16:41:38;3.20;;;1.00;;
13197;SDS011;6664;52.514;13.440;2022-09-02T16:44:10;1.00;;;1.00;;
13197;SDS011;6664;52.514;13.440;2022-09-02T16:46:41;1.37;;;1.10;;
13197;SDS011;6664;52.514;13.440;2022-09-02T16:49:12;1.33;;;0.90;;
13197;SDS011;6664;52.514;13.440;2022-09-02T16:51:47;1.10;;;0.90;;
13197;SDS011;6664;52.514;13.440;2022-09-02T16:54:25;1.20;;;0.90;;
13197;SDS011;6664;52.514;13.440;2022-09-02T16:57:02;0.97;;;0.90;;
13197;SDS011;6664;52.514;13.440;2022-09-02T16:59:29;1.20;;;1.07;;
13197;SDS011;6664;52.514;13.440;2022-09-02T17:01:56;1.20;;;0.97;;
13197;SDS011;6664;52.514;13.440;2022-09-02T17:04:23;0.90;;;0.90;;
13197;SDS011;6664;52.514;13.440;2022-09-02T17:06:50;0.80;;;0.80;;
13197;SDS011;6664;52.514;13.440;2022-09-02T17:09:17;1.20;;;1.10;;
13197;SDS011;6664;52.514;13.440;2022-09-02T17:11:47;0.93;;;0.80;;
13197;SDS011;6664;52.514;13.440;2022-09-02T17:14:19;1.23;;;0.90;;
13197;SDS011;6664;52.514;13.440;2022-09-02T17:16:47;1.30;;;1.20;;
13197;SDS011;6664;52.514;13.440;2022-09-02T17:19:16;1.90;;;1.13;;
13197;SDS011;6664;52.514;13.440;2022-09-02T17:21:51;1.87;;;0.87;;
13197;SDS011;6664;52.514;13.440;2022-09-02T17:24:20;1.20;;;1.07;;
13197;SDS011;6664;52.514;13.440;2022-09-02T17:26:49;2.10;;;0.90;;
13197;SDS011;6664;52.514;13.440;2022-09-02T17:29:18;1.30;;;1.20;;
13197;SDS011;6664;52.514;13.440;2022-09-02T17:32:07;0.97;;;0.93;;
13197;SDS011;6664;52.514;13.440;2022-09-02T17:34:38;0.90;;;0.77;;
13197;SDS011;6664;52.514;13.440;2022-09-02T17:37:05;1.07;;;1.00;;
13197;SDS011;6664;52.514;13.440;2022-09-02T17:39:33;3.03;;;1.17;;
13197;SDS011;6664;52.514;13.440;2022-09-02T17:42:01;1.23;;;1.10;;
13197;SDS011;6664;52.514;13.440;2022-09-02T17:44:31;0.90;;;0.90;;
13197;SDS011;6664;52.514;13.440;2022-09-02T17:47:06;1.33;;;1.20;;
13197;SDS011;6664;52.514;13.440;2022-09-02T17:49:33;1.67;;;0.90;;
13197;SDS011;6664;52.514;13.440;2022-09-02T17:52:05;1.27;;;0.97;;
13197;SDS011;6664;52.514;13.440;2022-09-02T17:54:33;1.43;;;1.20;;
13197;SDS011;6664;52.514;13.440;2022-09-02T18:10:46;1.23;;;1.10;;
13197;SDS011;6664;52.514;13.440;2022-09-02T18:16:27;1.03;;;0.93;;
13197;SDS011;6664;52.514;13.440;2022-09-02T18:19:16;1.10;;;1.00;;
13197;SDS011;6664;52.514;13.440;2022-09-02T18:22:18;1.17;;;1.07;;
13197;SDS011;6664;52.514;13.440;2022-09-02T18:27:31;1.17;;;1.00;;
13197;SDS011;6664;52.514;13.440;2022-09-02T18:30:39;1.33;;;1.23;;